sensor_id;sensor_type;location;lat;lon;timestamp;temperature;humidity
13253;DHT22;6693;54.370;10.132;2022-07-23T00:00:54;19.70;99.90
13253;DHT22;6693;54.370;10.132;2022-07-23T00:02:56;19.80;99.90
13253;DHT22;6693;54.370;10.132;2022-07-23T00:04:57;19.70;99.90
13253;DHT22;6693;54.370;10.132;2022-07-23T00:06:59;19.50;99.90
13253;DHT22;6693;54.370;10.132;2022-07-23T00:09:01;19.40;1.00
13253;DHT22;6693;54.370;10.132;2022-07-23T00:11:03;19.50;1.00
13253;DHT22;6693;54.370;10.132;2022-07-23T00:13:06;19.60;99.90
13253;DHT22;6693;54.370;10.132;2022-07-23T00:15:09;19.60;1.00
13253;DHT22;6693;54.370;10.132;2022-07-23T00:17:10;19.70;99.90
13253;DHT22;6693;54.370;10.132;2022-07-23T00:19:12;19.60;99.90
13253;DHT22;6693;54.370;10.132;2022-07-23T00:21:13;19.60;99.90
13253;DHT22;6693;54.370;10.132;2022-07-23T00:23:16;19.70;99.90
13253;DHT22;6693;54.370;10.132;2022-07-23T00:25:18;19.60;99.90
13253;DHT22;6693;54.370;10.132;2022-07-23T00:27:20;19.50;99.90
13253;DHT22;6693;54.370;10.132;2022-07-23T00:29:23;19.50;99.90
13253;DHT22;6693;54.370;10.132;2022-07-23T00:31:24;19.60;99.90
13253;DHT22;6693;54.370;10.132;2022-07-23T00:33:27;19.50;99.90
13253;DHT22;6693;54.370;10.132;2022-07-23T00:35:31;19.50;99.90
13253;DHT22;6693;54.370;10.132;2022-07-23T00:37:32;19.50;99.90
13253;DHT22;6693;54.370;10.132;2022-07-23T00:39:34;19.50;99.90
13253;DHT22;6693;54.370;10.132;2022-07-23T00:41:36;19.50;99.90
13253;DHT22;6693;54.370;10.132;2022-07-23T00:43:37;19.40;1.00
13253;DHT22;6693;54.370;10.132;2022-07-23T00:45:40;19.50;1.00
13253;DHT22;6693;54.370;10.132;2022-07-23T00:47:42;19.40;1.00
13253;DHT22;6693;54.370;10.132;2022-07-23T00:49:44;19.60;99.90
13253;DHT22;6693;54.370;10.132;2022-07-23T00:51:45;19.50;1.00
13253;DHT22;6693;54.370;10.132;2022-07-23T00:53:48;19.60;1.00
13253;DHT22;6693;54.370;10.132;2022-07-23T00:55:49;19.50;99.90
13253;DHT22;6693;54.370;10.132;2022-07-23T00:57:53;19.40;99.90
13253;DHT22;6693;54.370;10.132;2022-07-23T00:59:56;19.40;1.00
13253;DHT22;6693;54.370;10.132;2022-07-23T01:01:59;19.30;1.00
13253;DHT22;6693;54.370;10.132;2022-07-23T01:04:01;19.40;1.00
13253;DHT22;6693;54.370;10.132;2022-07-23T01:06:03;19.30;1.00
13253;DHT22;6693;54.370;10.132;2022-07-23T01:08:05;19.50;1.00
13253;DHT22;6693;54.370;10.132;2022-07-23T01:10:07;19.60;1.00
13253;DHT22;6693;54.370;10.132;2022-07-23T01:12:23;19.30;1.00
13253;DHT22;6693;54.370;10.132;2022-07-23T01:14:25;19.30;1.00
13253;DHT22;6693;54.370;10.132;2022-07-23T01:16:26;19.20;1.00
13253;DHT22;6693;54.370;10.132;2022-07-23T01:18:29;19.30;1.00
13253;DHT22;6693;54.370;10.132;2022-07-23T01:20:32;19.30;1.00
13253;DHT22;6693;54.370;10.132;2022-07-23T01:22:35;19.30;1.00
13253;DHT22;6693;54.370;10.132;2022-07-23T01:24:36;19.20;1.00
13253;DHT22;6693;54.370;10.132;2022-07-23T01:26:44;19.20;71.00
13253;DHT22;6693;54.370;10.132;2022-07-23T01:28:46;19.10;99.90
13253;DHT22;6693;54.370;10.132;2022-07-23T01:30:48;19.20;99.90
13253;DHT22;6693;54.370;10.132;2022-07-23T01:32:49;19.20;1.00
13253;DHT22;6693;54.370;10.132;2022-07-23T01:34:51;19.30;99.90
13253;DHT22;6693;54.370;10.132;2022-07-23T01:36:53;19.20;1.00
13253;DHT22;6693;54.370;10.132;2022-07-23T01:38:56;19.30;1.00
13253;DHT22;6693;54.370;10.132;2022-07-23T01:40:57;19.40;1.00
13253;DHT22;6693;54.370;10.132;2022-07-23T01:42:59;19.50;1.00
13253;DHT22;6693;54.370;10.132;2022-07-23T01:45:01;19.20;1.00
13253;DHT22;6693;54.370;10.132;2022-07-23T01:47:02;19.30;1.00
13253;DHT22;6693;54.370;10.132;2022-07-23T01:49:04;19.40;1.00
13253;DHT22;6693;54.370;10.132;2022-07-23T01:51:06;19.30;1.00
13253;DHT22;6693;54.370;10.132;2022-07-23T01:53:07;19.20;1.00
13253;DHT22;6693;54.370;10.132;2022-07-23T01:55:10;19.10;1.00
13253;DHT22;6693;54.370;10.132;2022-07-23T01:57:12;19.00;3.10
13253;DHT22;6693;54.370;10.132;2022-07-23T01:59:13;19.10;1.00
13253;DHT22;6693;54.370;10.132;2022-07-23T02:01:15;19.20;1.00
13253;DHT22;6693;54.370;10.132;2022-07-23T02:03:17;19.10;1.00
13253;DHT22;6693;54.370;10.132;2022-07-23T02:05:18;18.80;25.50
13253;DHT22;6693;54.370;10.132;2022-07-23T02:07:20;18.80;99.90
13253;DHT22;6693;54.370;10.132;2022-07-23T02:09:22;19.10;99.90
13253;DHT22;6693;54.370;10.132;2022-07-23T02:11:25;18.80;99.90
13253;DHT22;6693;54.370;10.132;2022-07-23T02:13:26;19.10;99.90
13253;DHT22;6693;54.370;10.132;2022-07-23T02:15:29;19.00;99.90
13253;DHT22;6693;54.370;10.132;2022-07-23T02:17:31;19.10;99.90
13253;DHT22;6693;54.370;10.132;2022-07-23T02:19:33;19.00;99.90
13253;DHT22;6693;54.370;10.132;2022-07-23T02:21:34;19.20;99.90
13253;DHT22;6693;54.370;10.132;2022-07-23T02:23:36;19.10;99.90
13253;DHT22;6693;54.370;10.132;2022-07-23T02:25:38;19.30;99.90
13253;DHT22;6693;54.370;10.132;2022-07-23T02:27:41;19.10;99.90
13253;DHT22;6693;54.370;10.132;2022-07-23T02:29:42;19.10;99.90
13253;DHT22;6693;54.370;10.132;2022-07-23T02:31:44;19.00;99.90
13253;DHT22;6693;54.370;10.132;2022-07-23T02:33:46;18.80;1.00
13253;DHT22;6693;54.370;10.132;2022-07-23T02:35:48;19.10;1.00
13253;DHT22;6693;54.370;10.132;2022-07-23T02:37:50;19.20;99.90
13253;DHT22;6693;54.370;10.132;2022-07-23T02:39:51;19.10;99.90
13253;DHT22;6693;54.370;10.132;2022-07-23T02:41:53;19.10;99.90
13253;DHT22;6693;54.370;10.132;2022-07-23T02:43:56;19.00;1.00
13253;DHT22;6693;54.370;10.132;2022-07-23T02:45:58;19.10;1.00
13253;DHT22;6693;54.370;10.132;2022-07-23T02:47:59;19.00;1.00
13253;DHT22;6693;54.370;10.132;2022-07-23T02:50:01;19.00;1.00
13253;DHT22;6693;54.370;10.132;2022-07-23T02:52:04;19.20;1.00
13253;DHT22;6693;54.370;10.132;2022-07-23T02:54:06;19.00;1.00
13253;DHT22;6693;54.370;10.132;2022-07-23T02:56:08;18.90;1.00
13253;DHT22;6693;54.370;10.132;2022-07-23T02:58:09;19.00;1.00
13253;DHT22;6693;54.370;10.132;2022-07-23T03:00:13;19.00;1.00
13253;DHT22;6693;54.370;10.132;2022-07-23T03:02:14;19.20;1.00
13253;DHT22;6693;54.370;10.132;2022-07-23T03:04:16;19.30;1.00
13253;DHT22;6693;54.370;10.132;2022-07-23T03:06:18;19.10;1.00
13253;DHT22;6693;54.370;10.132;2022-07-23T03:08:19;19.20;1.00
13253;DHT22;6693;54.370;10.132;2022-07-23T03:10:21;19.20;1.00
13253;DHT22;6693;54.370;10.132;2022-07-23T03:12:23;18.90;1.00
13253;DHT22;6693;54.370;10.132;2022-07-23T03:14:24;19.00;1.00
13253;DHT22;6693;54.370;10.132;2022-07-23T03:16:29;19.00;1.00
13253;DHT22;6693;54.370;10.132;2022-07-23T03:18:31;18.90;71.30
13253;DHT22;6693;54.370;10.132;2022-07-23T03:20:32;19.00;1.00
13253;DHT22;6693;54.370;10.132;2022-07-23T03:22:34;19.00;19.10
13253;DHT22;6693;54.370;10.132;2022-07-23T03:24:36;19.00;99.90
13253;DHT22;6693;54.370;10.132;2022-07-23T03:26:55;19.70;55.40
13253;DHT22;6693;54.370;10.132;2022-07-23T03:28:57;19.20;1.00
13253;DHT22;6693;54.370;10.132;2022-07-23T03:30:59;19.10;1.00
13253;DHT22;6693;54.370;10.132;2022-07-23T03:33:02;19.00;99.90
13253;DHT22;6693;54.370;10.132;2022-07-23T03:35:04;19.10;1.00
13253;DHT22;6693;54.370;10.132;2022-07-23T03:37:06;19.10;1.00
13253;DHT22;6693;54.370;10.132;2022-07-23T03:39:08;19.00;1.00
13253;DHT22;6693;54.370;10.132;2022-07-23T03:41:09;19.00;91.70
13253;DHT22;6693;54.370;10.132;2022-07-23T03:43:11;18.90;99.90
13253;DHT22;6693;54.370;10.132;2022-07-23T03:45:13;19.00;99.90
13253;DHT22;6693;54.370;10.132;2022-07-23T03:47:14;18.90;99.90
13253;DHT22;6693;54.370;10.132;2022-07-23T03:49:19;19.20;8.00
13253;DHT22;6693;54.370;10.132;2022-07-23T03:51:21;18.80;99.90
13253;DHT22;6693;54.370;10.132;2022-07-23T03:53:23;18.80;99.90
13253;DHT22;6693;54.370;10.132;2022-07-23T03:55:24;18.90;1.00
13253;DHT22;6693;54.370;10.132;2022-07-23T03:57:26;18.80;1.00
13253;DHT22;6693;54.370;10.132;2022-07-23T03:59:27;18.80;1.00
13253;DHT22;6693;54.370;10.132;2022-07-23T04:01:29;19.20;1.00
13253;DHT22;6693;54.370;10.132;2022-07-23T04:03:31;19.10;1.00
13253;DHT22;6693;54.370;10.132;2022-07-23T04:05:34;19.20;1.00
13253;DHT22;6693;54.370;10.132;2022-07-23T04:07:36;19.40;99.90
13253;DHT22;6693;54.370;10.132;2022-07-23T04:09:37;19.20;99.90
13253;DHT22;6693;54.370;10.132;2022-07-23T04:11:40;19.30;99.90
13253;DHT22;6693;54.370;10.132;2022-07-23T04:13:43;19.30;99.90
13253;DHT22;6693;54.370;10.132;2022-07-23T04:15:44;19.30;99.90
13253;DHT22;6693;54.370;10.132;2022-07-23T04:17:46;19.30;99.90
13253;DHT22;6693;54.370;10.132;2022-07-23T04:19:48;19.10;99.90
13253;DHT22;6693;54.370;10.132;2022-07-23T04:21:51;19.10;1.00
13253;DHT22;6693;54.370;10.132;2022-07-23T04:23:52;19.20;1.00
13253;DHT22;6693;54.370;10.132;2022-07-23T04:25:54;19.20;99.90
13253;DHT22;6693;54.370;10.132;2022-07-23T04:27:56;19.40;99.90
13253;DHT22;6693;54.370;10.132;2022-07-23T04:29:57;19.60;99.90
13253;DHT22;6693;54.370;10.132;2022-07-23T04:31:59;19.50;99.90
13253;DHT22;6693;54.370;10.132;2022-07-23T04:34:01;19.40;94.70
13253;DHT22;6693;54.370;10.132;2022-07-23T04:36:03;19.30;99.90
13253;DHT22;6693;54.370;10.132;2022-07-23T04:38:07;19.40;99.90
13253;DHT22;6693;54.370;10.132;2022-07-23T04:40:09;19.40;99.90
13253;DHT22;6693;54.370;10.132;2022-07-23T04:42:11;19.70;1.00
13253;DHT22;6693;54.370;10.132;2022-07-23T04:44:13;19.70;1.00
13253;DHT22;6693;54.370;10.132;2022-07-23T04:46:15;19.50;1.00
13253;DHT22;6693;54.370;10.132;2022-07-23T04:48:16;19.50;7.90
13253;DHT22;6693;54.370;10.132;2022-07-23T04:50:18;19.50;1.00
13253;DHT22;6693;54.370;10.132;2022-07-23T04:52:21;19.20;99.90
13253;DHT22;6693;54.370;10.132;2022-07-23T04:54:24;19.20;99.90
13253;DHT22;6693;54.370;10.132;2022-07-23T04:56:26;19.30;1.00
13253;DHT22;6693;54.370;10.132;2022-07-23T04:58:28;19.40;1.00
13253;DHT22;6693;54.370;10.132;2022-07-23T05:00:29;19.60;99.90
13253;DHT22;6693;54.370;10.132;2022-07-23T05:02:31;19.60;45.60
13253;DHT22;6693;54.370;10.132;2022-07-23T05:04:33;19.40;99.90
13253;DHT22;6693;54.370;10.132;2022-07-23T05:06:34;18.60;99.90
13253;DHT22;6693;54.370;10.132;2022-07-23T05:08:36;19.70;99.90
13253;DHT22;6693;54.370;10.132;2022-07-23T05:10:39;19.60;99.90
13253;DHT22;6693;54.370;10.132;2022-07-23T05:12:41;19.50;99.90
13253;DHT22;6693;54.370;10.132;2022-07-23T05:14:42;19.50;99.90
13253;DHT22;6693;54.370;10.132;2022-07-23T05:16:44;19.60;99.90
13253;DHT22;6693;54.370;10.132;2022-07-23T05:18:45;19.40;99.90
13253;DHT22;6693;54.370;10.132;2022-07-23T05:20:47;19.40;99.90
13253;DHT22;6693;54.370;10.132;2022-07-23T05:22:49;19.40;99.90
13253;DHT22;6693;54.370;10.132;2022-07-23T05:24:50;19.50;1.00
13253;DHT22;6693;54.370;10.132;2022-07-23T05:26:54;19.50;1.00
13253;DHT22;6693;54.370;10.132;2022-07-23T05:28:55;19.80;99.90
13253;DHT22;6693;54.370;10.132;2022-07-23T05:30:57;19.80;32.10
13253;DHT22;6693;54.370;10.132;2022-07-23T05:32:59;19.60;22.90
13253;DHT22;6693;54.370;10.132;2022-07-23T05:35:00;19.70;99.90
13253;DHT22;6693;54.370;10.132;2022-07-23T05:37:02;19.80;1.00
13253;DHT22;6693;54.370;10.132;2022-07-23T05:39:04;19.70;1.00
13253;DHT22;6693;54.370;10.132;2022-07-23T05:41:06;19.60;1.00
13253;DHT22;6693;54.370;10.132;2022-07-23T05:43:09;19.50;99.90
13253;DHT22;6693;54.370;10.132;2022-07-23T05:45:11;19.60;99.90
13253;DHT22;6693;54.370;10.132;2022-07-23T05:47:13;19.70;93.40
13253;DHT22;6693;54.370;10.132;2022-07-23T05:49:14;19.90;1.00
13253;DHT22;6693;54.370;10.132;2022-07-23T05:51:19;19.80;1.00
13253;DHT22;6693;54.370;10.132;2022-07-23T05:53:21;20.00;1.00
13253;DHT22;6693;54.370;10.132;2022-07-23T05:55:22;19.80;1.00
13253;DHT22;6693;54.370;10.132;2022-07-23T05:57:24;19.80;1.00
13253;DHT22;6693;54.370;10.132;2022-07-23T05:59:27;19.70;1.00
13253;DHT22;6693;54.370;10.132;2022-07-23T06:01:29;19.80;1.00
13253;DHT22;6693;54.370;10.132;2022-07-23T06:03:30;19.90;1.00
13253;DHT22;6693;54.370;10.132;2022-07-23T06:05:32;19.90;1.00
13253;DHT22;6693;54.370;10.132;2022-07-23T06:07:34;20.10;1.00
13253;DHT22;6693;54.370;10.132;2022-07-23T06:09:36;20.10;99.90
13253;DHT22;6693;54.370;10.132;2022-07-23T06:11:37;20.20;99.90
13253;DHT22;6693;54.370;10.132;2022-07-23T06:13:39;20.10;99.90
13253;DHT22;6693;54.370;10.132;2022-07-23T06:15:42;20.00;99.90
13253;DHT22;6693;54.370;10.132;2022-07-23T06:17:43;19.60;99.90
13253;DHT22;6693;54.370;10.132;2022-07-23T06:19:45;19.70;1.00
13253;DHT22;6693;54.370;10.132;2022-07-23T06:21:47;20.00;99.90
13253;DHT22;6693;54.370;10.132;2022-07-23T06:23:48;20.00;99.90
13253;DHT22;6693;54.370;10.132;2022-07-23T06:25:50;20.10;99.90
13253;DHT22;6693;54.370;10.132;2022-07-23T06:27:52;20.10;1.00
13253;DHT22;6693;54.370;10.132;2022-07-23T06:29:53;20.20;1.00
13253;DHT22;6693;54.370;10.132;2022-07-23T06:31:56;20.20;1.00
13253;DHT22;6693;54.370;10.132;2022-07-23T06:33:58;20.10;1.00
13253;DHT22;6693;54.370;10.132;2022-07-23T06:35:59;20.00;1.00
13253;DHT22;6693;54.370;10.132;2022-07-23T06:38:01;19.90;1.00
13253;DHT22;6693;54.370;10.132;2022-07-23T06:40:04;19.90;1.00
13253;DHT22;6693;54.370;10.132;2022-07-23T06:42:05;20.00;1.00
13253;DHT22;6693;54.370;10.132;2022-07-23T06:44:07;19.90;1.00
13253;DHT22;6693;54.370;10.132;2022-07-23T06:46:09;19.90;1.00
13253;DHT22;6693;54.370;10.132;2022-07-23T06:48:12;20.00;1.00
13253;DHT22;6693;54.370;10.132;2022-07-23T06:50:13;19.80;1.00
13253;DHT22;6693;54.370;10.132;2022-07-23T06:52:15;19.80;1.00
13253;DHT22;6693;54.370;10.132;2022-07-23T06:54:17;19.80;1.00
13253;DHT22;6693;54.370;10.132;2022-07-23T06:56:18;19.80;1.00
13253;DHT22;6693;54.370;10.132;2022-07-23T06:58:20;19.70;1.00
13253;DHT22;6693;54.370;10.132;2022-07-23T07:00:22;19.60;12.60
13253;DHT22;6693;54.370;10.132;2022-07-23T07:02:23;19.50;99.90
13253;DHT22;6693;54.370;10.132;2022-07-23T07:04:26;19.70;99.90
13253;DHT22;6693;54.370;10.132;2022-07-23T07:06:28;20.00;1.00
13253;DHT22;6693;54.370;10.132;2022-07-23T07:08:30;19.90;1.00
13253;DHT22;6693;54.370;10.132;2022-07-23T07:10:31;19.60;1.00
13253;DHT22;6693;54.370;10.132;2022-07-23T07:12:33;19.60;27.40
13253;DHT22;6693;54.370;10.132;2022-07-23T07:14:35;19.60;99.90
13253;DHT22;6693;54.370;10.132;2022-07-23T07:16:36;19.80;99.90
13253;DHT22;6693;54.370;10.132;2022-07-23T07:18:38;19.80;99.90
13253;DHT22;6693;54.370;10.132;2022-07-23T07:20:41;20.00;1.00
13253;DHT22;6693;54.370;10.132;2022-07-23T07:22:43;19.90;1.00
13253;DHT22;6693;54.370;10.132;2022-07-23T07:24:44;19.90;1.00
13253;DHT22;6693;54.370;10.132;2022-07-23T07:26:46;19.90;1.00
13253;DHT22;6693;54.370;10.132;2022-07-23T07:28:47;20.00;1.00
13253;DHT22;6693;54.370;10.132;2022-07-23T07:30:49;19.80;1.00
13253;DHT22;6693;54.370;10.132;2022-07-23T07:32:51;19.80;1.00
13253;DHT22;6693;54.370;10.132;2022-07-23T07:34:52;19.80;1.00
13253;DHT22;6693;54.370;10.132;2022-07-23T07:36:55;19.60;1.00
13253;DHT22;6693;54.370;10.132;2022-07-23T07:38:57;19.80;1.00
13253;DHT22;6693;54.370;10.132;2022-07-23T07:40:59;19.60;1.00
13253;DHT22;6693;54.370;10.132;2022-07-23T07:43:01;19.70;1.00
13253;DHT22;6693;54.370;10.132;2022-07-23T07:45:04;19.80;1.00
13253;DHT22;6693;54.370;10.132;2022-07-23T07:47:06;19.80;1.00
13253;DHT22;6693;54.370;10.132;2022-07-23T07:49:08;19.60;1.00
13253;DHT22;6693;54.370;10.132;2022-07-23T07:51:10;19.60;93.30
13253;DHT22;6693;54.370;10.132;2022-07-23T07:53:13;19.90;22.50
13253;DHT22;6693;54.370;10.132;2022-07-23T07:55:15;19.60;99.90
13253;DHT22;6693;54.370;10.132;2022-07-23T07:57:16;19.80;1.00
13253;DHT22;6693;54.370;10.132;2022-07-23T07:59:18;19.70;53.30
13253;DHT22;6693;54.370;10.132;2022-07-23T08:01:20;19.60;99.90
13253;DHT22;6693;54.370;10.132;2022-07-23T08:03:21;19.80;99.90
13253;DHT22;6693;54.370;10.132;2022-07-23T08:05:24;19.60;99.90
13253;DHT22;6693;54.370;10.132;2022-07-23T08:07:26;20.10;63.50
13253;DHT22;6693;54.370;10.132;2022-07-23T08:09:29;20.00;93.10
13253;DHT22;6693;54.370;10.132;2022-07-23T08:11:31;20.10;1.00
13253;DHT22;6693;54.370;10.132;2022-07-23T08:13:33;20.00;1.00
13253;DHT22;6693;54.370;10.132;2022-07-23T08:15:34;19.80;98.60
13253;DHT22;6693;54.370;10.132;2022-07-23T08:17:36;20.20;99.90
13253;DHT22;6693;54.370;10.132;2022-07-23T08:19:38;20.30;1.00
13253;DHT22;6693;54.370;10.132;2022-07-23T08:21:40;20.50;1.00
13253;DHT22;6693;54.370;10.132;2022-07-23T08:23:41;20.70;1.00
13253;DHT22;6693;54.370;10.132;2022-07-23T08:25:45;20.60;1.00
13253;DHT22;6693;54.370;10.132;2022-07-23T08:27:46;20.90;1.00
13253;DHT22;6693;54.370;10.132;2022-07-23T08:29:49;21.00;1.00
13253;DHT22;6693;54.370;10.132;2022-07-23T08:31:51;21.20;1.00
13253;DHT22;6693;54.370;10.132;2022-07-23T08:33:52;22.60;1.00
13253;DHT22;6693;54.370;10.132;2022-07-23T08:35:55;21.30;1.00
13253;DHT22;6693;54.370;10.132;2022-07-23T08:37:58;21.30;99.90
13253;DHT22;6693;54.370;10.132;2022-07-23T08:40:00;21.20;99.90
13253;DHT22;6693;54.370;10.132;2022-07-23T08:42:03;21.60;99.90
13253;DHT22;6693;54.370;10.132;2022-07-23T08:44:07;21.30;99.90
13253;DHT22;6693;54.370;10.132;2022-07-23T08:46:09;21.20;99.90
13253;DHT22;6693;54.370;10.132;2022-07-23T08:48:12;21.00;99.90
13253;DHT22;6693;54.370;10.132;2022-07-23T08:50:14;21.40;99.90
13253;DHT22;6693;54.370;10.132;2022-07-23T08:52:16;21.50;93.80
13253;DHT22;6693;54.370;10.132;2022-07-23T08:54:18;21.30;1.00
13253;DHT22;6693;54.370;10.132;2022-07-23T08:56:20;21.40;1.00
13253;DHT22;6693;54.370;10.132;2022-07-23T08:58:24;21.30;1.00
13253;DHT22;6693;54.370;10.132;2022-07-23T09:00:26;21.40;1.00
13253;DHT22;6693;54.370;10.132;2022-07-23T09:02:27;21.40;1.00
13253;DHT22;6693;54.370;10.132;2022-07-23T09:04:30;21.70;1.00
13253;DHT22;6693;54.370;10.132;2022-07-23T09:06:32;21.90;1.00
13253;DHT22;6693;54.370;10.132;2022-07-23T09:08:36;22.20;1.00
13253;DHT22;6693;54.370;10.132;2022-07-23T09:10:50;22.30;1.00
13253;DHT22;6693;54.370;10.132;2022-07-23T09:12:52;22.10;1.00
13253;DHT22;6693;54.370;10.132;2022-07-23T09:14:54;22.20;1.00
13253;DHT22;6693;54.370;10.132;2022-07-23T09:16:56;22.30;1.00
13253;DHT22;6693;54.370;10.132;2022-07-23T09:18:59;22.20;1.00
13253;DHT22;6693;54.370;10.132;2022-07-23T09:21:11;22.10;1.00
13253;DHT22;6693;54.370;10.132;2022-07-23T09:23:13;22.10;1.00
13253;DHT22;6693;54.370;10.132;2022-07-23T09:25:16;22.10;1.00
13253;DHT22;6693;54.370;10.132;2022-07-23T09:27:18;21.80;99.90
13253;DHT22;6693;54.370;10.132;2022-07-23T09:29:21;21.60;99.90
13253;DHT22;6693;54.370;10.132;2022-07-23T09:31:30;21.40;99.90
13253;DHT22;6693;54.370;10.132;2022-07-23T09:33:33;21.20;99.90
13253;DHT22;6693;54.370;10.132;2022-07-23T09:35:49;21.20;99.90
13253;DHT22;6693;54.370;10.132;2022-07-23T09:38:01;21.10;99.90
13253;DHT22;6693;54.370;10.132;2022-07-23T09:40:05;21.30;1.00
13253;DHT22;6693;54.370;10.132;2022-07-23T09:42:13;21.30;99.90
13253;DHT22;6693;54.370;10.132;2022-07-23T09:44:17;21.50;99.90
13253;DHT22;6693;54.370;10.132;2022-07-23T09:46:21;21.50;99.90
13253;DHT22;6693;54.370;10.132;2022-07-23T09:48:25;21.50;99.90
13253;DHT22;6693;54.370;10.132;2022-07-23T09:50:27;21.40;99.90
13253;DHT22;6693;54.370;10.132;2022-07-23T09:52:30;21.40;99.90
13253;DHT22;6693;54.370;10.132;2022-07-23T09:54:33;21.50;1.00
13253;DHT22;6693;54.370;10.132;2022-07-23T09:56:36;21.90;1.00
13253;DHT22;6693;54.370;10.132;2022-07-23T09:58:40;22.20;99.90
13253;DHT22;6693;54.370;10.132;2022-07-23T10:00:50;22.10;99.90
13253;DHT22;6693;54.370;10.132;2022-07-23T10:02:52;22.40;1.00
13253;DHT22;6693;54.370;10.132;2022-07-23T10:04:55;22.50;99.90
13253;DHT22;6693;54.370;10.132;2022-07-23T10:06:58;22.80;99.90
13253;DHT22;6693;54.370;10.132;2022-07-23T10:09:01;22.70;99.90
13253;DHT22;6693;54.370;10.132;2022-07-23T10:11:04;23.00;99.90
13253;DHT22;6693;54.370;10.132;2022-07-23T10:13:06;23.20;99.90
13253;DHT22;6693;54.370;10.132;2022-07-23T10:15:26;23.10;99.90
13253;DHT22;6693;54.370;10.132;2022-07-23T10:17:28;23.10;99.90
13253;DHT22;6693;54.370;10.132;2022-07-23T10:19:30;23.20;99.90
13253;DHT22;6693;54.370;10.132;2022-07-23T10:21:41;23.40;99.90
13253;DHT22;6693;54.370;10.132;2022-07-23T10:23:53;23.40;99.90
13253;DHT22;6693;54.370;10.132;2022-07-23T10:26:05;23.50;98.20
13253;DHT22;6693;54.370;10.132;2022-07-23T10:28:22;23.30;3.70
13253;DHT22;6693;54.370;10.132;2022-07-23T10:30:38;23.30;1.00
13253;DHT22;6693;54.370;10.132;2022-07-23T10:32:49;23.30;1.00
13253;DHT22;6693;54.370;10.132;2022-07-23T10:35:01;23.40;1.00
13253;DHT22;6693;54.370;10.132;2022-07-23T10:37:12;23.30;1.00
13253;DHT22;6693;54.370;10.132;2022-07-23T10:39:20;23.00;1.00
13253;DHT22;6693;54.370;10.132;2022-07-23T10:41:34;22.90;1.00
13253;DHT22;6693;54.370;10.132;2022-07-23T10:43:36;22.80;1.00
13253;DHT22;6693;54.370;10.132;2022-07-23T10:45:37;22.60;1.00
13253;DHT22;6693;54.370;10.132;2022-07-23T10:47:39;22.60;1.00
13253;DHT22;6693;54.370;10.132;2022-07-23T10:49:41;22.60;1.00
13253;DHT22;6693;54.370;10.132;2022-07-23T10:54:22;22.30;1.00
13253;DHT22;6693;54.370;10.132;2022-07-23T10:56:49;22.30;1.00
13253;DHT22;6693;54.370;10.132;2022-07-23T10:58:51;22.40;1.00
13253;DHT22;6693;54.370;10.132;2022-07-23T11:00:53;22.30;1.00
13253;DHT22;6693;54.370;10.132;2022-07-23T11:02:56;21.90;1.00
13253;DHT22;6693;54.370;10.132;2022-07-23T11:05:00;21.60;1.00
13253;DHT22;6693;54.370;10.132;2022-07-23T11:07:08;21.70;1.00
13253;DHT22;6693;54.370;10.132;2022-07-23T11:09:26;21.40;1.00
13253;DHT22;6693;54.370;10.132;2022-07-23T11:11:28;21.30;1.00
13253;DHT22;6693;54.370;10.132;2022-07-23T11:16:22;21.00;1.00
13253;DHT22;6693;54.370;10.132;2022-07-23T11:18:58;21.30;1.00
13253;DHT22;6693;54.370;10.132;2022-07-23T11:24:00;21.50;1.00
13253;DHT22;6693;54.370;10.132;2022-07-23T11:26:05;21.50;1.00
13253;DHT22;6693;54.370;10.132;2022-07-23T11:28:12;21.50;1.00
13253;DHT22;6693;54.370;10.132;2022-07-23T11:30:37;22.10;1.00
13253;DHT22;6693;54.370;10.132;2022-07-23T11:32:40;22.40;1.00
13253;DHT22;6693;54.370;10.132;2022-07-23T11:34:43;22.40;1.00
13253;DHT22;6693;54.370;10.132;2022-07-23T11:36:50;22.40;1.00
13253;DHT22;6693;54.370;10.132;2022-07-23T11:38:52;22.50;1.00
13253;DHT22;6693;54.370;10.132;2022-07-23T11:40:55;22.60;1.00
13253;DHT22;6693;54.370;10.132;2022-07-23T11:43:02;22.60;1.00
13253;DHT22;6693;54.370;10.132;2022-07-23T11:45:06;22.60;1.00
13253;DHT22;6693;54.370;10.132;2022-07-23T11:47:09;22.80;1.00
13253;DHT22;6693;54.370;10.132;2022-07-23T11:49:12;23.20;1.00
13253;DHT22;6693;54.370;10.132;2022-07-23T11:51:24;23.00;1.00
13253;DHT22;6693;54.370;10.132;2022-07-23T11:53:28;22.70;1.00
13253;DHT22;6693;54.370;10.132;2022-07-23T11:55:30;22.60;1.00
13253;DHT22;6693;54.370;10.132;2022-07-23T11:57:34;23.10;1.00
13253;DHT22;6693;54.370;10.132;2022-07-23T11:59:39;23.00;1.00
13253;DHT22;6693;54.370;10.132;2022-07-23T12:01:56;22.80;1.00
13253;DHT22;6693;54.370;10.132;2022-07-23T12:03:58;22.50;1.00
13253;DHT22;6693;54.370;10.132;2022-07-23T12:06:00;22.60;1.00
13253;DHT22;6693;54.370;10.132;2022-07-23T12:08:03;22.60;1.00
13253;DHT22;6693;54.370;10.132;2022-07-23T12:10:11;22.90;1.00
13253;DHT22;6693;54.370;10.132;2022-07-23T12:12:13;23.10;1.00
13253;DHT22;6693;54.370;10.132;2022-07-23T12:14:14;23.10;1.00
13253;DHT22;6693;54.370;10.132;2022-07-23T12:16:17;23.70;1.00
13253;DHT22;6693;54.370;10.132;2022-07-23T12:18:21;23.70;1.00
13253;DHT22;6693;54.370;10.132;2022-07-23T12:20:25;23.20;1.00
13253;DHT22;6693;54.370;10.132;2022-07-23T12:22:34;22.60;1.00
13253;DHT22;6693;54.370;10.132;2022-07-23T12:24:55;22.50;1.00
13253;DHT22;6693;54.370;10.132;2022-07-23T12:27:09;22.10;1.00
13253;DHT22;6693;54.370;10.132;2022-07-23T12:29:11;22.00;1.00
13253;DHT22;6693;54.370;10.132;2022-07-23T12:31:13;22.00;99.90
13253;DHT22;6693;54.370;10.132;2022-07-23T12:33:25;22.00;99.90
13253;DHT22;6693;54.370;10.132;2022-07-23T12:35:33;22.00;99.90
13253;DHT22;6693;54.370;10.132;2022-07-23T12:37:36;22.10;99.90
13253;DHT22;6693;54.370;10.132;2022-07-23T12:39:38;22.10;99.90
13253;DHT22;6693;54.370;10.132;2022-07-23T12:41:50;22.20;99.90
13253;DHT22;6693;54.370;10.132;2022-07-23T12:43:52;21.90;88.40
13253;DHT22;6693;54.370;10.132;2022-07-23T12:45:56;21.70;99.90
13253;DHT22;6693;54.370;10.132;2022-07-23T12:48:03;21.70;75.70
13253;DHT22;6693;54.370;10.132;2022-07-23T12:50:07;21.70;91.30
13253;DHT22;6693;54.370;10.132;2022-07-23T12:52:15;21.90;99.90
13253;DHT22;6693;54.370;10.132;2022-07-23T12:54:17;21.70;99.90
13253;DHT22;6693;54.370;10.132;2022-07-23T12:56:20;21.80;99.90
13253;DHT22;6693;54.370;10.132;2022-07-23T12:58:22;22.00;99.90
13253;DHT22;6693;54.370;10.132;2022-07-23T13:00:24;22.00;99.90
13253;DHT22;6693;54.370;10.132;2022-07-23T13:02:26;22.20;99.90
13253;DHT22;6693;54.370;10.132;2022-07-23T13:04:27;22.20;99.90
13253;DHT22;6693;54.370;10.132;2022-07-23T13:06:32;22.00;99.90
13253;DHT22;6693;54.370;10.132;2022-07-23T13:08:36;22.00;99.90
13253;DHT22;6693;54.370;10.132;2022-07-23T13:10:38;22.10;99.90
13253;DHT22;6693;54.370;10.132;2022-07-23T13:12:39;22.40;99.90
13253;DHT22;6693;54.370;10.132;2022-07-23T13:14:41;22.90;99.90